createdAt,value
2022-11-20T00:00:10.947Z,98.93
2022-11-20T00:01:10.947Z,99.04
2022-11-20T00:02:10.969Z,99.04
2022-11-20T00:03:10.928Z,98.93
2022-11-20T00:04:10.906Z,99.24
2022-11-20T00:05:10.915Z,99.44
2022-11-20T00:06:10.909Z,99.24
2022-11-20T00:07:10.962Z,98.83
2022-11-20T00:08:10.858Z,98.31
2022-11-20T00:09:10.858Z,98.21
2022-11-20T00:10:10.840Z,97.89
2022-11-20T00:11:15.518Z,97.69
2022-11-20T00:12:11.839Z,97.07
2022-11-20T00:13:10.828Z,96.92
2022-11-20T00:14:10.819Z,97.23
2022-11-20T00:15:10.799Z,97.13
2022-11-20T00:16:10.791Z,97.02
2022-11-20T00:17:10.792Z,96.61
2022-11-20T00:18:10.858Z,96.30
2022-11-20T00:19:10.759Z,96.03
2022-11-20T00:20:10.742Z,95.83
2022-11-20T00:21:10.741Z,95.73
2022-11-20T00:22:10.724Z,95.94
2022-11-20T00:23:10.721Z,96.45
2022-11-20T00:24:10.711Z,97.07
2022-11-20T00:25:10.693Z,96.66
2022-11-20T00:26:10.671Z,96.24
2022-11-20T00:27:10.672Z,95.83
2022-11-20T00:28:10.643Z,96.03
2022-11-20T00:29:10.693Z,96.14
2022-11-20T00:30:14.658Z,96.34
2022-11-20T00:31:10.624Z,96.24
2022-11-20T00:32:10.659Z,96.34
2022-11-20T00:33:10.617Z,96.45
2022-11-20T00:34:10.614Z,96.45
2022-11-20T00:35:10.592Z,96.34
2022-11-20T00:36:10.564Z,96.97
2022-11-20T00:37:10.578Z,96.76
2022-11-20T00:38:10.552Z,96.76
2022-11-20T00:39:10.544Z,96.86
2022-11-20T00:40:10.526Z,97.07
2022-11-20T00:41:10.527Z,97.28
2022-11-20T00:42:10.512Z,97.38
2022-11-20T00:43:10.514Z,97.28
2022-11-20T00:44:10.497Z,96.86
2022-11-20T00:45:10.486Z,96.76
2022-11-20T00:46:10.483Z,96.66
2022-11-20T00:47:10.466Z,96.45
2022-11-20T00:48:10.449Z,96.66
2022-11-20T00:49:10.449Z,96.24
2022-11-20T00:50:10.467Z,96.34
2022-11-20T00:51:10.468Z,96.55
2022-11-20T00:52:10.417Z,96.55
2022-11-20T00:53:10.398Z,96.24
2022-11-20T00:54:10.378Z,96.45
2022-11-20T00:55:10.384Z,96.55
2022-11-20T00:56:10.361Z,96.55
2022-11-20T00:57:10.359Z,96.66
2022-11-20T00:58:14.292Z,96.76
2022-11-20T00:59:10.358Z,96.76
2022-11-20T01:00:10.314Z,96.76
2022-11-20T01:01:10.398Z,96.97
2022-11-20T01:02:10.289Z,97.49
2022-11-20T01:03:10.301Z,97.07
2022-11-20T01:04:10.281Z,96.97
2022-11-20T01:05:10.270Z,97.38
2022-11-20T01:06:10.251Z,97.49
2022-11-20T01:07:10.264Z,97.69
2022-11-20T01:08:10.222Z,97.38
2022-11-20T01:09:10.239Z,97.49
2022-11-20T01:10:10.323Z,97.63
2022-11-20T01:11:10.224Z,97.53
2022-11-20T01:12:10.180Z,97.79
2022-11-20T01:13:10.184Z,98.25
2022-11-20T01:14:10.163Z,98.35
2022-11-20T01:15:10.172Z,97.74
2022-11-20T01:16:10.154Z,97.22
2022-11-20T01:17:10.135Z,97.01
2022-11-20T01:18:10.119Z,97.22
2022-11-20T01:19:10.115Z,97.32
2022-11-20T01:20:10.106Z,97.59
2022-11-20T01:21:10.116Z,97.69
2022-11-20T01:22:10.105Z,98.31
2022-11-20T01:23:10.084Z,98.10
2022-11-20T01:24:10.055Z,98.10
2022-11-20T01:25:10.055Z,98.21
2022-11-20T01:26:10.048Z,98.21
2022-11-20T01:27:10.037Z,98.35
2022-11-20T01:28:10.027Z,98.35
2022-11-20T01:29:10.031Z,98.35
2022-11-20T01:30:09.995Z,98.35
2022-11-20T01:31:09.998Z,98.66
2022-11-20T01:32:09.978Z,99.29
2022-11-20T01:33:09.970Z,99.29
2022-11-20T01:34:09.969Z,99.18
2022-11-20T01:35:09.950Z,99.39
2022-11-20T01:36:09.947Z,99.18
2022-11-20T01:37:09.927Z,99.49
2022-11-20T01:38:09.920Z,99.49
2022-11-20T01:39:09.907Z,99.29
2022-11-20T01:40:09.899Z,99.29
2022-11-20T01:41:09.908Z,99.39
2022-11-20T01:42:10.587Z,99.39
2022-11-20T01:43:09.863Z,99.39
2022-11-20T01:44:09.859Z,99.49
2022-11-20T01:45:09.869Z,99.80
2022-11-20T01:46:09.831Z,99.91
2022-11-20T01:47:09.830Z,99.91
2022-11-20T01:48:09.800Z,99.91
2022-11-20T01:49:09.799Z,99.86
2022-11-20T01:50:09.793Z,99.99
2022-11-20T01:51:09.820Z,99.99
2022-11-20T01:52:10.025Z,99.99
2022-11-20T01:53:09.762Z,99.99
2022-11-20T01:54:09.739Z,99.99
2022-11-20T01:55:09.732Z,99.99
2022-11-20T01:56:09.723Z,99.99
2022-11-20T01:57:09.725Z,99.99
2022-11-20T01:58:09.692Z,99.99
2022-11-20T01:59:09.806Z,99.99
2022-11-20T02:00:09.672Z,99.99
2022-11-20T02:01:09.783Z,99.99
2022-11-20T02:02:09.651Z,99.99
2022-11-20T02:03:09.653Z,99.86
2022-11-20T02:04:09.664Z,99.86
2022-11-20T02:05:09.643Z,99.96
2022-11-20T02:06:09.605Z,99.99
2022-11-20T02:07:09.674Z,99.99
2022-11-20T02:08:09.605Z,99.99
2022-11-20T02:09:09.584Z,99.99
2022-11-20T02:10:09.574Z,99.99
2022-11-20T02:11:09.574Z,99.99
2022-11-20T02:12:09.547Z,99.99
2022-11-20T02:13:09.545Z,99.99
2022-11-20T02:14:09.575Z,99.99
2022-11-20T02:15:09.535Z,99.99
2022-11-20T02:16:09.504Z,99.99
2022-11-20T02:17:09.508Z,99.99
2022-11-20T02:18:09.518Z,99.99
2022-11-20T02:19:09.509Z,99.99
2022-11-20T02:20:09.468Z,99.99
2022-11-20T02:21:09.457Z,99.99
2022-11-20T02:22:09.468Z,99.99
2022-11-20T02:23:09.474Z,99.99
2022-11-20T02:24:09.420Z,99.99
2022-11-20T02:25:09.419Z,99.99
2022-11-20T02:26:09.409Z,99.99
2022-11-20T02:27:09.399Z,99.99
2022-11-20T02:28:09.889Z,99.99
2022-11-20T02:29:09.379Z,99.99
2022-11-20T02:30:09.383Z,99.99
2022-11-20T02:31:09.358Z,99.99
2022-11-20T02:32:10.007Z,99.99
2022-11-20T02:33:09.340Z,99.99
2022-11-20T02:34:09.313Z,99.99
2022-11-20T02:35:09.309Z,99.99
2022-11-20T02:36:09.301Z,99.99
2022-11-20T02:37:09.290Z,99.99
2022-11-20T02:38:09.270Z,99.99
2022-11-20T02:39:09.271Z,99.99
2022-11-20T02:40:09.253Z,99.99
2022-11-20T02:41:09.261Z,99.99
2022-11-20T02:42:09.233Z,99.99
2022-11-20T02:43:09.222Z,99.99
2022-11-20T02:44:09.214Z,99.70
2022-11-20T02:45:09.213Z,99.44
2022-11-20T02:46:09.214Z,99.86
2022-11-20T02:47:09.182Z,99.24
2022-11-20T02:48:09.422Z,99.14
2022-11-20T02:49:09.162Z,99.55
2022-11-20T02:50:09.144Z,99.55
2022-11-20T02:51:09.172Z,99.44
2022-11-20T02:52:09.129Z,98.93
2022-11-20T02:53:09.124Z,98.62
2022-11-20T02:54:09.094Z,98.31
2022-11-20T02:55:09.096Z,98.21
2022-11-20T02:56:09.093Z,97.89
2022-11-20T02:57:09.086Z,98.62
2022-11-20T02:58:09.057Z,97.59
2022-11-20T02:59:09.055Z,97.89
2022-11-20T03:00:09.038Z,98.00
2022-11-20T03:01:09.091Z,97.89
2022-11-20T03:02:09.027Z,97.69
2022-11-20T03:03:09.027Z,97.69
2022-11-20T03:04:09.007Z,98.00
2022-11-20T03:05:08.999Z,98.21
2022-11-20T03:06:08.970Z,98.72
2022-11-20T03:07:09.010Z,97.22
2022-11-20T03:08:08.958Z,97.22
2022-11-20T03:09:08.957Z,97.28
2022-11-20T03:10:08.928Z,97.69
2022-11-20T03:11:09.769Z,97.53
2022-11-20T03:12:08.908Z,98.15
2022-11-20T03:13:08.906Z,98.77
2022-11-20T03:14:08.889Z,98.97
2022-11-20T03:15:08.879Z,98.97
2022-11-20T03:16:08.865Z,99.08
2022-11-20T03:17:08.869Z,99.39
2022-11-20T03:18:08.840Z,99.54
2022-11-20T03:19:08.850Z,99.99
2022-11-20T03:20:08.838Z,99.99
2022-11-20T03:21:08.821Z,99.99
2022-11-20T03:22:08.809Z,99.99
2022-11-20T03:23:08.810Z,99.99
2022-11-20T03:24:08.796Z,99.99
2022-11-20T03:25:08.792Z,99.99
2022-11-20T03:26:08.761Z,99.99
2022-11-20T03:27:08.782Z,99.99
2022-11-20T03:28:08.752Z,99.99
2022-11-20T03:29:08.743Z,99.99
2022-11-20T03:30:08.724Z,99.99
2022-11-20T03:31:08.722Z,99.99
2022-11-20T03:32:08.713Z,99.99
2022-11-20T03:33:08.701Z,99.99
2022-11-20T03:34:08.683Z,99.99
2022-11-20T03:35:08.684Z,99.99
2022-11-20T03:36:08.654Z,99.99
2022-11-20T03:37:08.674Z,99.99
2022-11-20T03:38:08.644Z,99.99
2022-11-20T03:39:08.646Z,99.99
2022-11-20T03:40:08.614Z,99.99
2022-11-20T03:41:08.620Z,99.99
2022-11-20T03:42:08.592Z,99.99
2022-11-20T03:43:08.606Z,99.99
2022-11-20T03:44:08.587Z,99.99
2022-11-20T03:45:08.567Z,99.99
2022-11-20T03:46:08.575Z,99.99
2022-11-20T03:47:08.539Z,99.99
2022-11-20T03:48:08.566Z,99.99
2022-11-20T03:49:08.537Z,99.99
2022-11-20T03:50:08.530Z,99.99
2022-11-20T03:51:08.506Z,99.99
2022-11-20T03:52:08.507Z,99.99
2022-11-20T03:53:08.497Z,99.99
2022-11-20T03:54:08.488Z,99.99
2022-11-20T03:55:08.466Z,99.99
2022-11-20T03:56:08.457Z,99.99
2022-11-20T03:57:08.510Z,99.99
2022-11-20T03:58:08.435Z,99.99
2022-11-20T03:59:08.597Z,99.99
2022-11-20T04:00:08.422Z,99.99
2022-11-20T04:01:08.399Z,99.99
2022-11-20T04:02:08.441Z,99.99
2022-11-20T04:03:08.380Z,99.99
2022-11-20T04:04:08.389Z,99.99
2022-11-20T04:05:08.359Z,99.99
2022-11-20T04:06:08.363Z,99.99
2022-11-20T04:07:08.402Z,99.99
2022-11-20T04:08:08.360Z,99.99
2022-11-20T04:09:08.333Z,99.99
2022-11-20T04:10:08.319Z,99.99
2022-11-20T04:11:08.313Z,99.99
2022-11-20T04:12:08.300Z,99.99
2022-11-20T04:13:08.282Z,99.99
2022-11-20T04:14:08.271Z,99.99
2022-11-20T04:15:08.258Z,99.99
2022-11-20T04:16:08.251Z,99.99
2022-11-20T04:17:08.233Z,99.99
2022-11-20T04:18:08.422Z,99.99
2022-11-20T04:19:08.222Z,99.99
2022-11-20T04:20:08.213Z,99.99
2022-11-20T04:21:08.664Z,99.99
2022-11-20T04:22:08.203Z,99.99
2022-11-20T04:23:08.173Z,99.99
2022-11-20T04:24:08.173Z,99.99
2022-11-20T04:25:08.145Z,99.99
2022-11-20T04:26:08.951Z,99.99
2022-11-20T04:27:08.125Z,99.99
2022-11-20T04:28:08.143Z,99.99
2022-11-20T04:29:08.134Z,99.99
2022-11-20T04:30:08.115Z,99.99
2022-11-20T04:31:08.124Z,99.99
2022-11-20T04:32:08.115Z,99.99
2022-11-20T04:33:08.119Z,99.99
2022-11-20T04:34:08.058Z,99.99
2022-11-20T04:35:08.068Z,99.99
2022-11-20T04:36:08.045Z,99.99
2022-11-20T04:37:08.052Z,99.99
2022-11-20T04:38:08.017Z,99.99
2022-11-20T04:39:08.035Z,99.99
2022-11-20T04:40:08.000Z,99.99
2022-11-20T04:41:07.985Z,99.99
2022-11-20T04:42:07.977Z,99.99
2022-11-20T04:43:07.956Z,99.99
2022-11-20T04:44:07.979Z,99.99
2022-11-20T04:45:07.964Z,99.99
2022-11-20T04:46:07.958Z,99.99
2022-11-20T04:47:07.933Z,99.99
2022-11-20T04:48:07.918Z,99.99
2022-11-20T04:49:07.896Z,99.99
2022-11-20T04:50:08.026Z,99.99
2022-11-20T04:51:07.879Z,99.99
2022-11-20T04:52:07.879Z,99.99
2022-11-20T04:53:07.856Z,99.99
2022-11-20T04:54:07.860Z,99.99
2022-11-20T04:55:07.856Z,99.99
2022-11-20T04:56:07.838Z,99.99
2022-11-20T04:57:12.942Z,99.99
2022-11-20T04:58:09.299Z,99.99
2022-11-20T04:59:07.841Z,99.99
2022-11-20T05:00:07.807Z,99.99
2022-11-20T05:01:07.895Z,99.99
2022-11-20T05:02:07.770Z,99.99
2022-11-20T05:03:07.752Z,99.99
2022-11-20T05:04:07.763Z,99.99
2022-11-20T05:05:07.730Z,99.99
2022-11-20T05:06:07.743Z,99.99
2022-11-20T05:07:07.792Z,99.99
2022-11-20T05:08:07.723Z,99.99
2022-11-20T05:09:07.692Z,99.99
2022-11-20T05:10:07.732Z,99.99
2022-11-20T05:11:07.723Z,99.99
2022-11-20T05:12:07.674Z,99.99
2022-11-20T05:13:07.643Z,99.99
2022-11-20T05:14:07.643Z,99.99
2022-11-20T05:15:07.623Z,99.99
2022-11-20T05:16:07.633Z,99.99
2022-11-20T05:17:07.607Z,99.99
2022-11-20T05:18:07.613Z,99.99
2022-11-20T05:19:07.585Z,99.99
2022-11-20T05:20:07.601Z,99.99
2022-11-20T05:21:07.575Z,99.99
2022-11-20T05:22:07.563Z,99.99
2022-11-20T05:23:07.548Z,99.99
2022-11-20T05:24:07.546Z,99.99
2022-11-20T05:25:07.559Z,99.99
2022-11-20T05:26:07.557Z,99.99
2022-11-20T05:27:07.507Z,99.99
2022-11-20T05:28:07.506Z,99.99
2022-11-20T05:29:07.475Z,99.99
2022-11-20T05:30:07.481Z,99.99
2022-11-20T05:31:07.468Z,99.99
2022-11-20T05:32:07.465Z,99.99
2022-11-20T05:33:07.436Z,99.99
2022-11-20T05:34:07.448Z,99.99
2022-11-20T05:35:07.418Z,99.99
2022-11-20T05:36:07.457Z,99.99
2022-11-20T05:37:07.401Z,99.99
2022-11-20T05:38:07.408Z,99.99
2022-11-20T05:39:08.187Z,99.99
2022-11-20T05:40:08.875Z,99.99
2022-11-20T05:41:07.369Z,99.99
2022-11-20T05:42:07.361Z,99.99
2022-11-20T05:43:07.340Z,99.99
2022-11-20T05:44:07.330Z,99.99
2022-11-20T05:45:07.318Z,99.99
2022-11-20T05:46:07.321Z,99.99
2022-11-20T05:47:07.640Z,99.99
2022-11-20T05:48:07.640Z,99.99
2022-11-20T05:49:07.269Z,99.99
2022-11-20T05:50:07.633Z,99.99
2022-11-20T05:51:07.249Z,99.99
2022-11-20T05:52:07.259Z,99.99
2022-11-20T05:53:07.244Z,99.99
2022-11-20T05:54:07.222Z,99.99
2022-11-20T05:55:07.209Z,99.99
2022-11-20T05:56:07.211Z,99.99
2022-11-20T05:57:07.190Z,99.99
2022-11-20T05:58:07.192Z,99.99
2022-11-20T05:59:07.170Z,99.99
2022-11-20T06:00:07.185Z,99.99
2022-11-20T06:01:07.153Z,99.99
2022-11-20T06:02:07.156Z,99.99
2022-11-20T06:03:07.131Z,99.99
2022-11-20T06:04:07.125Z,99.99
2022-11-20T06:05:07.104Z,99.99
2022-11-20T06:06:07.103Z,99.99
2022-11-20T06:07:07.151Z,99.99
2022-11-20T06:08:07.079Z,99.99
2022-11-20T06:09:07.075Z,99.99
2022-11-20T06:10:07.896Z,99.99
2022-11-20T06:11:07.065Z,99.99
2022-11-20T06:12:07.046Z,99.99
2022-11-20T06:13:07.829Z,99.99
2022-11-20T06:14:07.016Z,99.99
2022-11-20T06:15:07.064Z,99.99
2022-11-20T06:16:07.006Z,99.99
2022-11-20T06:17:06.976Z,99.99
2022-11-20T06:18:06.974Z,99.99
2022-11-20T06:19:06.966Z,99.99
2022-11-20T06:20:06.977Z,99.99
2022-11-20T06:21:06.942Z,99.99
2022-11-20T06:22:06.948Z,99.99
2022-11-20T06:23:06.925Z,99.99
2022-11-20T06:24:06.918Z,99.99
2022-11-20T06:25:06.894Z,99.99
2022-11-20T06:26:06.898Z,99.99
2022-11-20T06:27:06.868Z,99.99
2022-11-20T06:28:06.868Z,99.99
2022-11-20T06:29:06.857Z,99.99
2022-11-20T06:30:06.858Z,99.99
2022-11-20T06:31:06.841Z,99.63
2022-11-20T06:32:06.839Z,99.58
2022-11-20T06:33:06.809Z,98.75
2022-11-20T06:34:07.640Z,98.24
2022-11-20T06:35:06.808Z,98.24
2022-11-20T06:36:10.678Z,98.24
2022-11-20T06:37:06.780Z,98.44
2022-11-20T06:38:06.770Z,98.55
2022-11-20T06:39:06.771Z,98.65
2022-11-20T06:40:06.792Z,98.86
2022-11-20T06:41:06.731Z,98.96
2022-11-20T06:42:06.729Z,98.19
2022-11-20T06:43:06.730Z,98.09
2022-11-20T06:44:06.743Z,97.99
2022-11-20T06:45:06.786Z,97.99
2022-11-20T06:46:06.693Z,97.16
2022-11-20T06:47:06.681Z,97.57
2022-11-20T06:48:08.401Z,97.57
2022-11-20T06:49:06.764Z,98.19
2022-11-20T06:50:08.348Z,97.78
2022-11-20T06:51:06.688Z,96.80
2022-11-20T06:52:06.644Z,96.08
2022-11-20T06:53:07.255Z,95.77
2022-11-20T06:54:06.636Z,95.46
2022-11-20T06:55:06.615Z,95.00
2022-11-20T06:56:06.626Z,95.73
2022-11-20T06:57:06.575Z,95.46
2022-11-20T06:58:06.594Z,95.36
2022-11-20T06:59:07.594Z,94.69
2022-11-20T07:00:06.565Z,95.00
2022-11-20T07:01:07.587Z,95.00
2022-11-20T07:02:06.533Z,95.21
2022-11-20T07:03:06.497Z,94.69
2022-11-20T07:04:06.535Z,94.48
2022-11-20T07:05:06.532Z,95.10
2022-11-20T07:06:06.473Z,95.62
2022-11-20T07:07:06.557Z,95.73
2022-11-20T07:08:06.510Z,94.69
2022-11-20T07:09:12.462Z,93.55
2022-11-20T07:10:07.438Z,93.87
2022-11-20T07:11:06.515Z,93.66
2022-11-20T07:12:06.418Z,94.28
2022-11-20T07:13:06.465Z,93.66
2022-11-20T07:14:06.390Z,93.45
2022-11-20T07:15:06.529Z,93.55
2022-11-20T07:16:06.373Z,93.35
2022-11-20T07:17:06.370Z,93.76
2022-11-20T07:18:06.350Z,93.97
2022-11-20T07:19:06.341Z,93.97
2022-11-20T07:20:07.046Z,93.14
2022-11-20T07:21:06.319Z,92.83
2022-11-20T07:22:06.312Z,92.52
2022-11-20T07:23:06.295Z,92.79
2022-11-20T07:24:06.282Z,92.89
2022-11-20T07:25:06.272Z,92.48
2022-11-20T07:26:06.294Z,92.48
2022-11-20T07:27:06.244Z,92.58
2022-11-20T07:28:06.241Z,92.17
2022-11-20T07:29:06.242Z,92.89
2022-11-20T07:30:06.229Z,92.58
2022-11-20T07:31:06.233Z,92.58
2022-11-20T07:32:06.203Z,91.65
2022-11-20T07:33:06.223Z,91.65
2022-11-20T07:34:06.995Z,90.83
2022-11-20T07:35:06.161Z,90.83
2022-11-20T07:36:06.162Z,90.83
2022-11-20T07:37:10.314Z,90.16
2022-11-20T07:38:06.145Z,90.89
2022-11-20T07:39:06.146Z,90.37
2022-11-20T07:40:06.124Z,90.68
2022-11-20T07:41:06.104Z,91.61
2022-11-20T07:42:06.135Z,90.78
2022-11-20T07:43:06.116Z,90.06
2022-11-20T07:44:06.090Z,90.99
2022-11-20T07:45:06.063Z,90.16
2022-11-20T07:46:06.055Z,88.41
2022-11-20T07:47:06.036Z,89.13
2022-11-20T07:48:06.029Z,89.54
2022-11-20T07:49:06.038Z,89.54
2022-11-20T07:50:06.016Z,88.41
2022-11-20T07:51:06.030Z,89.65
2022-11-20T07:52:05.997Z,89.65
2022-11-20T07:53:05.969Z,89.65
2022-11-20T07:54:05.987Z,90.37
2022-11-20T07:55:06.092Z,90.33
2022-11-20T07:56:05.982Z,90.33
2022-11-20T07:57:05.962Z,89.19
2022-11-20T07:58:05.951Z,88.98
2022-11-20T07:59:05.919Z,89.40
2022-11-20T08:00:05.900Z,89.40
2022-11-20T08:01:06.116Z,88.68
2022-11-20T08:02:05.941Z,88.78
2022-11-20T08:03:05.881Z,89.09
2022-11-20T08:04:05.850Z,88.16
2022-11-20T08:05:05.873Z,89.50
2022-11-20T08:06:05.922Z,89.92
2022-11-20T08:07:05.957Z,89.19
2022-11-20T08:08:05.861Z,88.89
2022-11-20T08:09:05.831Z,89.92
2022-11-20T08:10:05.785Z,89.40
2022-11-20T08:11:05.841Z,88.37
2022-11-20T08:12:05.775Z,87.54
2022-11-20T08:13:05.820Z,87.95
2022-11-20T08:14:05.783Z,87.54
2022-11-20T08:15:11.367Z,88.84
2022-11-20T08:16:06.757Z,88.02
2022-11-20T08:17:05.733Z,87.19
2022-11-20T08:18:30.004Z,87.71
2022-11-20T08:19:06.713Z,86.78
2022-11-20T08:20:05.687Z,86.94
2022-11-20T08:21:05.787Z,86.74
2022-11-20T08:22:05.657Z,85.91
2022-11-20T08:23:05.667Z,86.53
2022-11-20T08:24:05.649Z,86.36
2022-11-20T08:25:05.657Z,86.68
2022-11-20T08:26:05.697Z,86.05
2022-11-20T08:27:05.677Z,85.85
2022-11-20T08:28:14.411Z,86.05
2022-11-20T08:29:07.583Z,85.33
2022-11-20T08:30:05.614Z,85.64
2022-11-20T08:31:05.612Z,84.81
2022-11-20T08:32:05.650Z,85.23
2022-11-20T08:33:06.792Z,85.54
2022-11-20T08:34:09.279Z,85.23
2022-11-20T08:35:05.530Z,86.05
2022-11-20T08:36:05.512Z,85.02
2022-11-20T08:37:05.561Z,84.92
2022-11-20T08:38:05.501Z,84.81
2022-11-20T08:39:05.542Z,84.51
2022-11-20T08:40:06.231Z,84.78
2022-11-20T08:41:05.471Z,85.13
2022-11-20T08:42:05.480Z,85.75
2022-11-20T08:43:05.478Z,85.13
2022-11-20T08:44:05.426Z,86.05
2022-11-20T08:45:05.434Z,86.05
2022-11-20T08:46:05.421Z,86.53
2022-11-20T08:47:05.414Z,87.35
2022-11-20T08:48:05.385Z,85.81
2022-11-20T08:49:06.196Z,86.12
2022-11-20T08:50:05.361Z,86.22
2022-11-20T08:51:05.364Z,85.50
2022-11-20T08:52:05.335Z,85.91
2022-11-20T08:53:05.349Z,86.02
2022-11-20T08:54:05.325Z,85.97
2022-11-20T08:55:05.315Z,86.29
2022-11-20T08:56:05.307Z,86.18
2022-11-20T08:57:05.314Z,84.84
2022-11-20T08:58:05.353Z,85.77
2022-11-20T08:59:37.248Z,86.66
2022-11-20T09:00:07.150Z,86.45
2022-11-20T09:01:06.141Z,85.42
2022-11-20T09:02:05.232Z,84.59
2022-11-20T09:03:05.238Z,84.91
2022-11-20T09:04:05.217Z,85.73
2022-11-20T09:05:05.238Z,85.28
2022-11-20T09:06:05.192Z,84.35
2022-11-20T09:07:05.261Z,84.05
2022-11-20T09:08:05.169Z,85.17
2022-11-20T09:09:07.065Z,84.25
2022-11-20T09:11:06.168Z,83.12
2022-11-20T09:12:05.143Z,82.70
2022-11-20T09:13:05.127Z,83.22
2022-11-20T09:14:05.119Z,83.22
2022-11-20T09:15:05.130Z,82.50
2022-11-20T09:16:05.102Z,82.84
2022-11-20T09:17:05.084Z,83.94
2022-11-20T09:18:05.171Z,83.73
2022-11-20T09:19:35.034Z,83.53
2022-11-20T09:20:06.066Z,82.84
2022-11-20T09:21:05.104Z,83.63
2022-11-20T09:22:05.032Z,82.40
2022-11-20T09:23:05.032Z,83.12
2022-11-20T09:24:04.992Z,83.01
2022-11-20T09:25:05.000Z,82.40
2022-11-20T09:26:04.972Z,82.09
2022-11-20T09:27:04.978Z,81.98
2022-11-20T09:28:04.960Z,81.37
2022-11-20T09:29:04.957Z,82.29
2022-11-20T09:30:04.943Z,81.16
2022-11-20T09:31:05.404Z,81.12
2022-11-20T09:32:05.423Z,81.23
2022-11-20T09:33:04.916Z,81.23
2022-11-20T09:34:04.895Z,81.43
2022-11-20T09:35:04.975Z,80.91
2022-11-20T09:36:04.967Z,79.47
2022-11-20T09:37:07.846Z,80.30
2022-11-20T09:38:04.843Z,78.92
2022-11-20T09:39:04.847Z,79.27
2022-11-20T09:40:04.836Z,79.13
2022-11-20T09:41:04.856Z,80.47
2022-11-20T09:42:04.826Z,80.88
2022-11-20T09:43:04.808Z,79.95
2022-11-20T09:44:04.783Z,79.23
2022-11-20T09:45:04.786Z,79.95
2022-11-20T09:46:04.786Z,79.03
2022-11-20T09:47:04.758Z,77.69
2022-11-20T09:48:04.738Z,79.33
2022-11-20T09:49:04.739Z,78.30
2022-11-20T09:50:04.778Z,78.61
2022-11-20T09:51:04.721Z,79.06
2022-11-20T09:52:04.699Z,79.58
2022-11-20T09:53:04.698Z,80.16
2022-11-20T09:54:04.680Z,79.95
2022-11-20T09:55:06.139Z,79.85
2022-11-20T09:56:04.681Z,79.13
2022-11-20T09:57:04.686Z,78.82
2022-11-20T09:58:04.642Z,80.88
2022-11-20T09:59:05.426Z,80.26
2022-11-20T10:00:04.627Z,81.29
2022-11-20T10:01:04.676Z,81.49
2022-11-20T10:02:04.592Z,80.16
2022-11-20T10:03:04.617Z,79.95
2022-11-20T10:04:04.591Z,79.85
2022-11-20T10:05:04.579Z,79.33
2022-11-20T10:06:04.553Z,78.30
2022-11-20T10:07:30.921Z,79.06
2022-11-20T10:08:05.605Z,79.75
2022-11-20T10:09:04.530Z,80.05
2022-11-20T10:10:04.522Z,79.54
2022-11-20T10:11:04.534Z,78.82
2022-11-20T10:12:04.497Z,79.33
2022-11-20T10:13:04.494Z,78.92
2022-11-20T10:14:04.472Z,79.85
2022-11-20T10:15:04.516Z,79.23
2022-11-20T10:16:04.461Z,77.48
2022-11-20T10:17:04.494Z,77.38
2022-11-20T10:18:04.425Z,78.20
2022-11-20T10:19:04.428Z,78.99
2022-11-20T10:20:04.416Z,79.19
2022-11-20T10:21:04.495Z,78.17
2022-11-20T10:22:04.788Z,78.68
2022-11-20T10:23:04.383Z,77.96
2022-11-20T10:24:04.356Z,79.77
2022-11-20T10:25:04.361Z,77.51
2022-11-20T10:26:05.157Z,77.41
2022-11-20T10:27:04.340Z,77.51
2022-11-20T10:28:04.337Z,77.92
2022-11-20T10:29:08.653Z,75.87
2022-11-20T10:30:04.307Z,76.76
2022-11-20T10:31:04.302Z,76.28
2022-11-20T10:32:04.280Z,76.97
2022-11-20T10:33:04.289Z,77.27
2022-11-20T10:34:12.046Z,76.86
2022-11-20T10:35:05.261Z,76.45
2022-11-20T10:36:04.251Z,75.42
2022-11-20T10:37:04.232Z,75.73
2022-11-20T10:38:04.381Z,77.34
2022-11-20T10:39:05.021Z,76.31
2022-11-20T10:40:04.196Z,75.70
2022-11-20T10:41:04.203Z,76.10
2022-11-20T10:42:04.172Z,76.72
2022-11-20T10:43:04.442Z,75.49
2022-11-20T10:44:04.152Z,75.70
2022-11-20T10:45:06.500Z,76.21
2022-11-20T10:46:04.178Z,74.46
2022-11-20T10:47:04.144Z,74.67
2022-11-20T10:48:04.152Z,74.05
2022-11-20T10:49:04.124Z,74.77
2022-11-20T10:50:04.152Z,74.36
2022-11-20T10:51:04.086Z,75.90
2022-11-20T10:52:04.065Z,75.59
2022-11-20T10:53:04.080Z,76.28
2022-11-20T10:54:04.046Z,75.04
2022-11-20T10:55:04.044Z,75.45
2022-11-20T10:56:04.025Z,74.94
2022-11-20T10:57:04.025Z,75.66
2022-11-20T10:58:04.006Z,73.81
2022-11-20T10:59:04.046Z,74.02
2022-11-20T11:00:03.986Z,73.91
2022-11-20T11:01:04.052Z,73.40
2022-11-20T11:02:03.964Z,73.33
2022-11-20T11:03:03.971Z,73.74
2022-11-20T11:04:04.053Z,73.64
2022-11-20T11:05:03.937Z,73.95
2022-11-20T11:06:03.916Z,75.01
2022-11-20T11:07:04.077Z,75.21
2022-11-20T11:08:03.898Z,76.14
2022-11-20T11:09:03.896Z,75.21
2022-11-20T11:10:03.892Z,75.63
2022-11-20T11:11:03.868Z,75.42
2022-11-20T11:12:07.116Z,76.55
2022-11-20T11:13:03.858Z,76.04
2022-11-20T11:14:03.838Z,75.87
2022-11-20T11:15:03.829Z,76.35
2022-11-20T11:16:03.950Z,77.27
2022-11-20T11:17:04.618Z,75.63
2022-11-20T11:18:03.791Z,76.18
2022-11-20T11:19:03.781Z,76.69
2022-11-20T11:20:03.819Z,77.72
2022-11-20T11:21:04.283Z,78.33
2022-11-20T11:22:03.756Z,77.92
2022-11-20T11:23:03.751Z,77.62
2022-11-20T11:24:26.756Z,77.10
2022-11-20T11:25:04.721Z,77.10
2022-11-20T11:26:03.696Z,76.73
2022-11-20T11:27:03.694Z,76.21
2022-11-20T11:28:03.683Z,77.10
2022-11-20T11:29:03.697Z,76.21
2022-11-20T11:30:03.655Z,75.80
2022-11-20T11:31:03.671Z,76.31
2022-11-20T11:32:03.635Z,76.52
2022-11-20T11:33:03.645Z,76.31
2022-11-20T11:34:03.673Z,76.28
2022-11-20T11:35:03.616Z,75.46
2022-11-20T11:36:03.599Z,75.46
2022-11-20T11:37:03.595Z,75.29
2022-11-20T11:38:03.574Z,76.21
2022-11-20T11:39:03.698Z,76.76
2022-11-20T11:40:23.404Z,76.66
2022-11-20T11:41:04.549Z,77.07
2022-11-20T11:42:04.338Z,77.83
2022-11-20T11:43:03.528Z,78.55
2022-11-20T11:44:03.587Z,78.10
2022-11-20T11:45:03.519Z,77.62
2022-11-20T11:46:03.485Z,77.72
2022-11-20T11:47:03.490Z,78.24
2022-11-20T11:48:03.482Z,78.55
2022-11-20T11:49:03.470Z,77.11
2022-11-20T11:50:03.447Z,76.28
2022-11-20T11:51:03.450Z,75.52
2022-11-20T11:52:04.241Z,74.53
2022-11-20T11:53:03.550Z,72.92
2022-11-20T11:54:03.509Z,70.57
2022-11-20T11:55:09.893Z,68.73
2022-11-20T11:56:04.397Z,66.45
2022-11-20T11:57:03.382Z,67.19
2022-11-20T11:58:03.368Z,67.23
2022-11-20T11:59:03.352Z,67.49
2022-11-20T12:00:03.341Z,67.90
2022-11-20T12:01:03.334Z,66.89
2022-11-20T12:02:03.361Z,65.40
2022-11-20T12:03:03.322Z,64.22
2022-11-20T12:04:03.363Z,62.82
2022-11-20T12:05:03.290Z,62.05
2022-11-20T12:06:03.291Z,61.16
2022-11-20T12:07:18.339Z,62.36
2022-11-20T12:08:09.456Z,60.93
2022-11-20T12:09:04.245Z,62.32
2022-11-20T12:10:03.238Z,63.54
2022-11-20T12:11:03.228Z,61.34
2022-11-20T12:12:03.215Z,61.27
2022-11-20T12:13:03.206Z,61.71
2022-11-20T12:14:03.195Z,60.66
2022-11-20T12:15:03.201Z,60.96
2022-11-20T12:16:03.195Z,61.98
2022-11-20T12:17:03.168Z,63.34
2022-11-20T12:18:03.149Z,61.68
2022-11-20T12:19:03.131Z,62.42
2022-11-20T12:20:03.129Z,63.64
2022-11-20T12:21:03.121Z,62.71
2022-11-20T12:22:05.095Z,64.99
2022-11-20T12:23:03.101Z,65.47
2022-11-20T12:24:03.080Z,65.73
2022-11-20T12:25:03.101Z,66.78
2022-11-20T12:26:03.118Z,67.60
2022-11-20T12:27:03.045Z,66.38
2022-11-20T12:28:03.055Z,68.32
2022-11-20T12:29:03.023Z,65.97
2022-11-20T12:30:03.023Z,66.03
2022-11-20T12:31:03.034Z,68.08
2022-11-20T12:32:03.003Z,67.19
2022-11-20T12:33:02.985Z,66.72
2022-11-20T12:34:02.986Z,65.31
2022-11-20T12:35:06.100Z,66.24
2022-11-20T12:36:03.955Z,68.38
2022-11-20T12:37:02.950Z,67.02
2022-11-20T12:38:02.936Z,66.85
2022-11-20T12:39:02.913Z,67.29
2022-11-20T12:40:02.906Z,67.19
2022-11-20T12:41:02.899Z,66.81
2022-11-20T12:42:02.889Z,68.04
2022-11-20T12:43:02.886Z,68.59
2022-11-20T12:44:02.878Z,69.51
2022-11-20T12:45:02.859Z,69.92
2022-11-20T12:46:02.849Z,69.43
2022-11-20T12:47:02.829Z,70.05
2022-11-20T12:48:02.833Z,70.36
2022-11-20T12:49:02.806Z,70.67
2022-11-20T12:50:02.812Z,70.87
2022-11-20T12:51:18.163Z,70.46
2022-11-20T12:52:03.781Z,71.66
2022-11-20T12:53:02.769Z,70.87